sensor_id;sensor_type;location;lat;lon;timestamp;P1;durP1;ratioP1;P2;durP2;ratioP2
65187;SDS011;51775;51.148;6.950;2023-02-15T00:02:07;6.68;;;3.72;;
65187;SDS011;51775;51.148;6.950;2023-02-15T00:04:32;5.10;;;3.60;;
65187;SDS011;51775;51.148;6.950;2023-02-15T00:06:58;5.38;;;3.90;;
65187;SDS011;51775;51.148;6.950;2023-02-15T00:09:23;7.15;;;3.90;;
65187;SDS011;51775;51.148;6.950;2023-02-15T00:11:48;5.28;;;3.70;;
65187;SDS011;51775;51.148;6.950;2023-02-15T00:14:15;5.53;;;3.75;;
65187;SDS011;51775;51.148;6.950;2023-02-15T00:16:43;5.60;;;3.97;;
65187;SDS011;51775;51.148;6.950;2023-02-15T00:19:09;5.95;;;3.85;;
65187;SDS011;51775;51.148;6.950;2023-02-15T00:21:35;7.38;;;4.75;;
65187;SDS011;51775;51.148;6.950;2023-02-15T00:24:02;5.72;;;3.90;;
65187;SDS011;51775;51.148;6.950;2023-02-15T00:26:28;5.78;;;3.78;;
65187;SDS011;51775;51.148;6.950;2023-02-15T00:28:55;5.90;;;3.83;;
65187;SDS011;51775;51.148;6.950;2023-02-15T00:31:21;5.35;;;3.80;;
65187;SDS011;51775;51.148;6.950;2023-02-15T00:33:46;5.03;;;3.58;;
65187;SDS011;51775;51.148;6.950;2023-02-15T00:36:12;5.28;;;3.55;;
65187;SDS011;51775;51.148;6.950;2023-02-15T00:38:38;4.88;;;3.50;;
65187;SDS011;51775;51.148;6.950;2023-02-15T00:41:05;6.40;;;3.95;;
65187;SDS011;51775;51.148;6.950;2023-02-15T00:43:31;5.95;;;3.63;;
65187;SDS011;51775;51.148;6.950;2023-02-15T00:45:58;6.03;;;3.80;;
65187;SDS011;51775;51.148;6.950;2023-02-15T00:48:23;5.28;;;3.70;;
65187;SDS011;51775;51.148;6.950;2023-02-15T00:50:50;6.07;;;4.03;;
65187;SDS011;51775;51.148;6.950;2023-02-15T00:53:17;5.97;;;3.70;;
65187;SDS011;51775;51.148;6.950;2023-02-15T00:55:42;5.50;;;3.42;;
65187;SDS011;51775;51.148;6.950;2023-02-15T00:58:08;4.82;;;3.30;;
65187;SDS011;51775;51.148;6.950;2023-02-15T01:00:34;5.05;;;3.58;;
65187;SDS011;51775;51.148;6.950;2023-02-15T01:03:00;5.45;;;3.75;;
65187;SDS011;51775;51.148;6.950;2023-02-15T01:05:25;5.20;;;3.55;;
65187;SDS011;51775;51.148;6.950;2023-02-15T01:07:51;5.35;;;3.67;;
65187;SDS011;51775;51.148;6.950;2023-02-15T01:10:16;4.50;;;3.25;;
65187;SDS011;51775;51.148;6.950;2023-02-15T01:12:42;6.00;;;3.92;;
65187;SDS011;51775;51.148;6.950;2023-02-15T01:15:08;5.47;;;3.47;;
65187;SDS011;51775;51.148;6.950;2023-02-15T01:17:33;6.22;;;3.50;;
65187;SDS011;51775;51.148;6.950;2023-02-15T01:19:59;6.13;;;3.60;;
65187;SDS011;51775;51.148;6.950;2023-02-15T01:22:24;5.30;;;3.70;;
65187;SDS011;51775;51.148;6.950;2023-02-15T01:24:50;6.43;;;3.63;;
65187;SDS011;51775;51.148;6.950;2023-02-15T01:27:15;5.25;;;3.50;;
65187;SDS011;51775;51.148;6.950;2023-02-15T01:29:41;4.70;;;3.47;;
65187;SDS011;51775;51.148;6.950;2023-02-15T01:32:06;5.05;;;3.45;;
65187;SDS011;51775;51.148;6.950;2023-02-15T01:34:31;4.90;;;3.58;;
65187;SDS011;51775;51.148;6.950;2023-02-15T01:36:57;5.22;;;3.60;;
65187;SDS011;51775;51.148;6.950;2023-02-15T01:39:22;5.00;;;3.45;;
65187;SDS011;51775;51.148;6.950;2023-02-15T01:41:47;5.20;;;3.67;;
65187;SDS011;51775;51.148;6.950;2023-02-15T01:47:13;4.95;;;3.47;;
65187;SDS011;51775;51.148;6.950;2023-02-15T01:49:42;5.35;;;3.45;;
65187;SDS011;51775;51.148;6.950;2023-02-15T01:52:09;5.20;;;3.55;;
65187;SDS011;51775;51.148;6.950;2023-02-15T01:54:37;4.93;;;3.53;;
65187;SDS011;51775;51.148;6.950;2023-02-15T01:57:10;4.95;;;3.65;;
65187;SDS011;51775;51.148;6.950;2023-02-15T01:59:39;5.65;;;3.80;;
65187;SDS011;51775;51.148;6.950;2023-02-15T02:02:08;5.57;;;3.60;;
65187;SDS011;51775;51.148;6.950;2023-02-15T02:04:47;5.45;;;3.70;;
65187;SDS011;51775;51.148;6.950;2023-02-15T02:07:15;5.55;;;3.40;;
65187;SDS011;51775;51.148;6.950;2023-02-15T02:09:44;4.78;;;3.30;;
65187;SDS011;51775;51.148;6.950;2023-02-15T02:12:10;6.47;;;4.30;;
65187;SDS011;51775;51.148;6.950;2023-02-15T02:14:36;5.45;;;3.85;;
65187;SDS011;51775;51.148;6.950;2023-02-15T02:17:13;4.95;;;3.42;;
65187;SDS011;51775;51.148;6.950;2023-02-15T02:19:51;5.32;;;3.58;;
65187;SDS011;51775;51.148;6.950;2023-02-15T02:28:17;4.85;;;3.53;;
65187;SDS011;51775;51.148;6.950;2023-02-15T02:30:49;4.60;;;3.40;;
65187;SDS011;51775;51.148;6.950;2023-02-15T02:33:39;5.25;;;3.40;;
65187;SDS011;51775;51.148;6.950;2023-02-15T02:36:15;5.30;;;3.72;;
65187;SDS011;51775;51.148;6.950;2023-02-15T02:44:31;5.28;;;3.60;;
65187;SDS011;51775;51.148;6.950;2023-02-15T02:47:09;5.57;;;3.47;;
65187;SDS011;51775;51.148;6.950;2023-02-15T02:49:42;5.40;;;3.88;;
65187;SDS011;51775;51.148;6.950;2023-02-15T02:55:01;5.50;;;3.67;;
65187;SDS011;51775;51.148;6.950;2023-02-15T02:57:28;5.35;;;3.78;;
65187;SDS011;51775;51.148;6.950;2023-02-15T02:59:57;5.38;;;3.63;;
65187;SDS011;51775;51.148;6.950;2023-02-15T03:02:26;4.97;;;3.20;;
65187;SDS011;51775;51.148;6.950;2023-02-15T03:04:59;5.07;;;3.40;;
65187;SDS011;51775;51.148;6.950;2023-02-15T03:07:28;4.95;;;3.33;;
65187;SDS011;51775;51.148;6.950;2023-02-15T03:09:56;4.80;;;3.25;;
65187;SDS011;51775;51.148;6.950;2023-02-15T03:12:24;4.95;;;3.42;;
65187;SDS011;51775;51.148;6.950;2023-02-15T03:14:55;4.70;;;3.38;;
65187;SDS011;51775;51.148;6.950;2023-02-15T03:17:26;4.57;;;3.22;;
65187;SDS011;51775;51.148;6.950;2023-02-15T03:19:55;5.80;;;3.80;;
65187;SDS011;51775;51.148;6.950;2023-02-15T03:22:26;4.85;;;3.42;;
65187;SDS011;51775;51.148;6.950;2023-02-15T03:27:55;5.57;;;3.70;;
65187;SDS011;51775;51.148;6.950;2023-02-15T03:30:26;5.30;;;3.55;;
65187;SDS011;51775;51.148;6.950;2023-02-15T03:32:54;5.32;;;3.60;;
65187;SDS011;51775;51.148;6.950;2023-02-15T03:35:23;5.00;;;3.55;;
65187;SDS011;51775;51.148;6.950;2023-02-15T03:37:51;5.15;;;3.53;;
65187;SDS011;51775;51.148;6.950;2023-02-15T03:40:29;4.95;;;3.40;;
65187;SDS011;51775;51.148;6.950;2023-02-15T03:43:04;5.25;;;3.65;;
65187;SDS011;51775;51.148;6.950;2023-02-15T03:45:54;5.00;;;3.55;;
65187;SDS011;51775;51.148;6.950;2023-02-15T03:48:31;5.22;;;3.60;;
65187;SDS011;51775;51.148;6.950;2023-02-15T03:51:04;5.30;;;3.55;;
65187;SDS011;51775;51.148;6.950;2023-02-15T03:53:33;5.10;;;3.40;;
65187;SDS011;51775;51.148;6.950;2023-02-15T03:55:58;5.80;;;3.70;;
65187;SDS011;51775;51.148;6.950;2023-02-15T03:58:24;5.57;;;3.75;;
65187;SDS011;51775;51.148;6.950;2023-02-15T04:00:51;5.30;;;3.67;;
65187;SDS011;51775;51.148;6.950;2023-02-15T04:03:40;4.80;;;3.50;;
65187;SDS011;51775;51.148;6.950;2023-02-15T04:06:10;5.65;;;3.70;;
65187;SDS011;51775;51.148;6.950;2023-02-15T04:08:35;5.72;;;3.90;;
65187;SDS011;51775;51.148;6.950;2023-02-15T04:11:00;5.25;;;3.50;;
65187;SDS011;51775;51.148;6.950;2023-02-15T04:13:29;5.75;;;3.72;;
65187;SDS011;51775;51.148;6.950;2023-02-15T04:15:56;5.97;;;3.63;;
65187;SDS011;51775;51.148;6.950;2023-02-15T04:18:22;5.32;;;3.78;;
65187;SDS011;51775;51.148;6.950;2023-02-15T04:20:47;5.38;;;3.60;;
65187;SDS011;51775;51.148;6.950;2023-02-15T04:23:12;4.70;;;3.53;;
65187;SDS011;51775;51.148;6.950;2023-02-15T04:25:37;4.85;;;3.15;;
65187;SDS011;51775;51.148;6.950;2023-02-15T04:28:03;5.22;;;3.70;;
65187;SDS011;51775;51.148;6.950;2023-02-15T04:30:28;4.75;;;3.33;;
65187;SDS011;51775;51.148;6.950;2023-02-15T04:32:54;4.70;;;3.25;;
65187;SDS011;51775;51.148;6.950;2023-02-15T04:35:19;4.60;;;3.22;;
65187;SDS011;51775;51.148;6.950;2023-02-15T04:37:45;4.88;;;3.22;;
65187;SDS011;51775;51.148;6.950;2023-02-15T04:40:11;4.85;;;3.38;;
65187;SDS011;51775;51.148;6.950;2023-02-15T04:42:40;5.32;;;3.50;;
65187;SDS011;51775;51.148;6.950;2023-02-15T04:45:06;5.45;;;3.38;;
65187;SDS011;51775;51.148;6.950;2023-02-15T04:47:31;5.65;;;3.50;;
65187;SDS011;51775;51.148;6.950;2023-02-15T04:49:57;5.95;;;3.80;;
65187;SDS011;51775;51.148;6.950;2023-02-15T04:52:22;4.88;;;3.47;;
65187;SDS011;51775;51.148;6.950;2023-02-15T04:54:47;5.63;;;3.78;;
65187;SDS011;51775;51.148;6.950;2023-02-15T04:57:13;5.68;;;3.70;;
65187;SDS011;51775;51.148;6.950;2023-02-15T04:59:38;5.45;;;3.70;;
65187;SDS011;51775;51.148;6.950;2023-02-15T05:02:03;4.95;;;3.30;;
65187;SDS011;51775;51.148;6.950;2023-02-15T05:04:29;5.55;;;3.80;;
65187;SDS011;51775;51.148;6.950;2023-02-15T05:06:54;5.28;;;3.70;;
65187;SDS011;51775;51.148;6.950;2023-02-15T05:09:19;5.35;;;3.25;;
65187;SDS011;51775;51.148;6.950;2023-02-15T05:11:45;5.78;;;3.53;;
65187;SDS011;51775;51.148;6.950;2023-02-15T05:14:10;5.38;;;3.67;;
65187;SDS011;51775;51.148;6.950;2023-02-15T05:16:35;5.38;;;3.70;;
65187;SDS011;51775;51.148;6.950;2023-02-15T05:19:01;4.78;;;3.50;;
65187;SDS011;51775;51.148;6.950;2023-02-15T05:21:26;5.68;;;3.60;;
65187;SDS011;51775;51.148;6.950;2023-02-15T05:23:51;5.30;;;3.78;;
65187;SDS011;51775;51.148;6.950;2023-02-15T05:26:18;5.10;;;3.22;;
65187;SDS011;51775;51.148;6.950;2023-02-15T05:28:46;5.18;;;3.40;;
65187;SDS011;51775;51.148;6.950;2023-02-15T05:31:12;4.93;;;3.53;;
65187;SDS011;51775;51.148;6.950;2023-02-15T05:33:42;5.82;;;3.90;;
65187;SDS011;51775;51.148;6.950;2023-02-15T05:36:08;5.28;;;3.85;;
65187;SDS011;51775;51.148;6.950;2023-02-15T05:38:34;5.72;;;3.83;;
65187;SDS011;51775;51.148;6.950;2023-02-15T05:41:00;5.18;;;3.65;;
65187;SDS011;51775;51.148;6.950;2023-02-15T05:43:25;6.20;;;4.00;;
65187;SDS011;51775;51.148;6.950;2023-02-15T05:45:53;4.85;;;3.35;;
65187;SDS011;51775;51.148;6.950;2023-02-15T05:48:20;4.95;;;3.58;;
65187;SDS011;51775;51.148;6.950;2023-02-15T05:50:56;5.60;;;3.63;;
65187;SDS011;51775;51.148;6.950;2023-02-15T05:53:32;5.00;;;3.50;;
65187;SDS011;51775;51.148;6.950;2023-02-15T05:55:59;5.32;;;3.47;;
65187;SDS011;51775;51.148;6.950;2023-02-15T05:58:25;5.47;;;3.72;;
65187;SDS011;51775;51.148;6.950;2023-02-15T06:00:51;5.05;;;3.40;;
65187;SDS011;51775;51.148;6.950;2023-02-15T06:03:17;4.70;;;3.22;;
65187;SDS011;51775;51.148;6.950;2023-02-15T06:05:42;4.90;;;3.35;;
65187;SDS011;51775;51.148;6.950;2023-02-15T06:08:07;5.15;;;3.47;;
65187;SDS011;51775;51.148;6.950;2023-02-15T06:10:33;5.25;;;3.60;;
65187;SDS011;51775;51.148;6.950;2023-02-15T06:12:58;5.82;;;3.80;;
65187;SDS011;51775;51.148;6.950;2023-02-15T06:15:23;5.47;;;3.53;;
65187;SDS011;51775;51.148;6.950;2023-02-15T06:17:48;5.53;;;3.80;;
65187;SDS011;51775;51.148;6.950;2023-02-15T06:20:14;5.57;;;3.75;;
65187;SDS011;51775;51.148;6.950;2023-02-15T06:22:39;5.45;;;3.58;;
65187;SDS011;51775;51.148;6.950;2023-02-15T06:25:04;4.97;;;3.55;;
65187;SDS011;51775;51.148;6.950;2023-02-15T06:27:30;4.90;;;3.40;;
65187;SDS011;51775;51.148;6.950;2023-02-15T06:29:55;5.50;;;3.72;;
65187;SDS011;51775;51.148;6.950;2023-02-15T06:32:20;5.57;;;3.83;;
65187;SDS011;51775;51.148;6.950;2023-02-15T06:34:46;5.55;;;3.70;;
65187;SDS011;51775;51.148;6.950;2023-02-15T06:37:11;4.78;;;3.58;;
65187;SDS011;51775;51.148;6.950;2023-02-15T06:39:36;5.20;;;3.80;;
65187;SDS011;51775;51.148;6.950;2023-02-15T06:42:02;5.38;;;3.80;;
65187;SDS011;51775;51.148;6.950;2023-02-15T06:44:29;6.70;;;3.65;;
65187;SDS011;51775;51.148;6.950;2023-02-15T06:46:54;7.40;;;4.10;;
65187;SDS011;51775;51.148;6.950;2023-02-15T06:49:19;5.97;;;3.83;;
65187;SDS011;51775;51.148;6.950;2023-02-15T06:51:45;6.15;;;4.25;;
65187;SDS011;51775;51.148;6.950;2023-02-15T06:54:10;6.38;;;4.03;;
65187;SDS011;51775;51.148;6.950;2023-02-15T06:56:35;6.05;;;3.83;;
65187;SDS011;51775;51.148;6.950;2023-02-15T06:59:01;5.43;;;3.63;;
65187;SDS011;51775;51.148;6.950;2023-02-15T07:01:27;5.30;;;3.70;;
65187;SDS011;51775;51.148;6.950;2023-02-15T07:03:52;4.88;;;3.25;;
65187;SDS011;51775;51.148;6.950;2023-02-15T07:06:17;6.60;;;3.92;;
65187;SDS011;51775;51.148;6.950;2023-02-15T07:08:42;5.40;;;3.75;;
65187;SDS011;51775;51.148;6.950;2023-02-15T07:11:08;5.95;;;3.60;;
65187;SDS011;51775;51.148;6.950;2023-02-15T07:13:33;5.05;;;3.50;;
65187;SDS011;51775;51.148;6.950;2023-02-15T07:15:58;5.40;;;3.78;;
65187;SDS011;51775;51.148;6.950;2023-02-15T07:18:23;6.18;;;3.63;;
65187;SDS011;51775;51.148;6.950;2023-02-15T07:20:49;5.38;;;3.70;;
65187;SDS011;51775;51.148;6.950;2023-02-15T07:23:14;4.82;;;3.30;;
65187;SDS011;51775;51.148;6.950;2023-02-15T07:25:39;5.43;;;3.67;;
65187;SDS011;51775;51.148;6.950;2023-02-15T07:28:05;5.68;;;3.75;;
65187;SDS011;51775;51.148;6.950;2023-02-15T07:30:30;5.18;;;3.63;;
65187;SDS011;51775;51.148;6.950;2023-02-15T07:32:56;5.90;;;3.88;;
65187;SDS011;51775;51.148;6.950;2023-02-15T07:35:22;6.40;;;4.25;;
65187;SDS011;51775;51.148;6.950;2023-02-15T07:37:47;5.97;;;3.80;;
65187;SDS011;51775;51.148;6.950;2023-02-15T07:40:13;7.05;;;4.07;;
65187;SDS011;51775;51.148;6.950;2023-02-15T07:42:42;5.80;;;3.70;;
65187;SDS011;51775;51.148;6.950;2023-02-15T07:45:07;7.25;;;4.00;;
65187;SDS011;51775;51.148;6.950;2023-02-15T07:47:33;6.88;;;4.45;;
65187;SDS011;51775;51.148;6.950;2023-02-15T07:49:58;5.75;;;3.80;;
65187;SDS011;51775;51.148;6.950;2023-02-15T07:52:25;6.65;;;4.07;;
65187;SDS011;51775;51.148;6.950;2023-02-15T07:54:50;6.25;;;3.65;;
65187;SDS011;51775;51.148;6.950;2023-02-15T07:57:15;5.53;;;3.60;;
65187;SDS011;51775;51.148;6.950;2023-02-15T07:59:41;7.85;;;3.80;;
65187;SDS011;51775;51.148;6.950;2023-02-15T08:02:14;6.88;;;4.10;;
65187;SDS011;51775;51.148;6.950;2023-02-15T08:04:40;5.60;;;3.65;;
65187;SDS011;51775;51.148;6.950;2023-02-15T08:07:05;6.38;;;3.80;;
65187;SDS011;51775;51.148;6.950;2023-02-15T08:09:31;6.13;;;3.80;;
65187;SDS011;51775;51.148;6.950;2023-02-15T08:11:57;6.50;;;2.58;;
65187;SDS011;51775;51.148;6.950;2023-02-15T08:14:22;5.40;;;2.75;;
65187;SDS011;51775;51.148;6.950;2023-02-15T08:16:48;4.63;;;2.50;;
65187;SDS011;51775;51.148;6.950;2023-02-15T08:19:15;3.97;;;2.20;;
65187;SDS011;51775;51.148;6.950;2023-02-15T08:21:55;4.15;;;2.45;;
65187;SDS011;51775;51.148;6.950;2023-02-15T08:24:28;4.03;;;2.30;;
65187;SDS011;51775;51.148;6.950;2023-02-15T08:26:55;4.00;;;2.30;;
65187;SDS011;51775;51.148;6.950;2023-02-15T08:29:21;3.60;;;2.53;;
65187;SDS011;51775;51.148;6.950;2023-02-15T08:31:48;3.70;;;2.20;;
65187;SDS011;51775;51.148;6.950;2023-02-15T08:34:16;3.40;;;2.22;;
65187;SDS011;51775;51.148;6.950;2023-02-15T08:36:43;4.68;;;2.40;;
65187;SDS011;51775;51.148;6.950;2023-02-15T08:39:09;4.45;;;2.22;;
65187;SDS011;51775;51.148;6.950;2023-02-15T08:41:35;4.18;;;2.53;;
65187;SDS011;51775;51.148;6.950;2023-02-15T08:44:02;3.38;;;2.17;;
65187;SDS011;51775;51.148;6.950;2023-02-15T08:46:30;4.90;;;2.20;;
65187;SDS011;51775;51.148;6.950;2023-02-15T08:48:57;4.50;;;2.10;;
65187;SDS011;51775;51.148;6.950;2023-02-15T08:51:27;4.03;;;2.38;;
65187;SDS011;51775;51.148;6.950;2023-02-15T08:53:56;3.95;;;2.22;;
65187;SDS011;51775;51.148;6.950;2023-02-15T08:56:24;3.60;;;2.10;;
65187;SDS011;51775;51.148;6.950;2023-02-15T08:58:52;4.43;;;2.40;;
65187;SDS011;51775;51.148;6.950;2023-02-15T09:01:21;3.45;;;2.30;;
65187;SDS011;51775;51.148;6.950;2023-02-15T09:03:50;5.22;;;2.22;;
65187;SDS011;51775;51.148;6.950;2023-02-15T09:06:16;4.03;;;2.20;;
65187;SDS011;51775;51.148;6.950;2023-02-15T09:08:42;3.55;;;2.17;;
65187;SDS011;51775;51.148;6.950;2023-02-15T09:11:26;3.80;;;2.05;;
65187;SDS011;51775;51.148;6.950;2023-02-15T09:13:57;4.03;;;2.40;;
65187;SDS011;51775;51.148;6.950;2023-02-15T09:16:25;4.30;;;2.47;;
65187;SDS011;51775;51.148;6.950;2023-02-15T09:18:53;4.55;;;2.55;;
65187;SDS011;51775;51.148;6.950;2023-02-15T09:21:20;4.85;;;2.42;;
65187;SDS011;51775;51.148;6.950;2023-02-15T09:23:47;4.45;;;2.78;;
65187;SDS011;51775;51.148;6.950;2023-02-15T09:26:14;4.63;;;2.95;;
65187;SDS011;51775;51.148;6.950;2023-02-15T09:28:41;4.45;;;2.33;;
65187;SDS011;51775;51.148;6.950;2023-02-15T09:31:08;4.22;;;2.47;;
65187;SDS011;51775;51.148;6.950;2023-02-15T09:33:37;4.82;;;2.90;;
65187;SDS011;51775;51.148;6.950;2023-02-15T09:36:04;4.80;;;2.83;;
65187;SDS011;51775;51.148;6.950;2023-02-15T09:38:30;5.78;;;2.90;;
65187;SDS011;51775;51.148;6.950;2023-02-15T09:41:12;5.07;;;2.85;;
65187;SDS011;51775;51.148;6.950;2023-02-15T09:46:49;3.47;;;2.08;;
65187;SDS011;51775;51.148;6.950;2023-02-15T09:49:21;4.43;;;2.77;;
65187;SDS011;51775;51.148;6.950;2023-02-15T10:00:22;4.88;;;3.05;;
65187;SDS011;51775;51.148;6.950;2023-02-15T10:02:59;3.15;;;1.80;;
65187;SDS011;51775;51.148;6.950;2023-02-15T10:10:58;3.30;;;1.90;;
65187;SDS011;51775;51.148;6.950;2023-02-15T10:13:41;4.68;;;3.22;;
65187;SDS011;51775;51.148;6.950;2023-02-15T10:16:26;4.00;;;2.00;;
65187;SDS011;51775;51.148;6.950;2023-02-15T10:19:31;4.57;;;2.90;;
65187;SDS011;51775;51.148;6.950;2023-02-15T10:24:58;3.72;;;2.33;;
65187;SDS011;51775;51.148;6.950;2023-02-15T10:27:27;4.20;;;2.60;;
65187;SDS011;51775;51.148;6.950;2023-02-15T10:30:10;3.45;;;2.17;;
65187;SDS011;51775;51.148;6.950;2023-02-15T10:35:37;5.10;;;2.38;;
65187;SDS011;51775;51.148;6.950;2023-02-15T10:55:02;3.55;;;2.15;;
65187;SDS011;51775;51.148;6.950;2023-02-15T10:57:49;5.57;;;2.10;;
65187;SDS011;51775;51.148;6.950;2023-02-15T11:03:59;3.72;;;2.00;;
65187;SDS011;51775;51.148;6.950;2023-02-15T11:06:13;3.33;;;2.10;;
65187;SDS011;51775;51.148;6.950;2023-02-15T11:08:50;3.53;;;2.00;;
65187;SDS011;51775;51.148;6.950;2023-02-15T11:11:23;4.68;;;2.00;;
65187;SDS011;51775;51.148;6.950;2023-02-15T11:16:53;4.68;;;2.10;;
65187;SDS011;51775;51.148;6.950;2023-02-15T11:21:59;4.43;;;1.83;;
65187;SDS011;51775;51.148;6.950;2023-02-15T11:24:28;3.13;;;2.00;;
65187;SDS011;51775;51.148;6.950;2023-02-15T11:27:05;3.35;;;1.90;;
65187;SDS011;51775;51.148;6.950;2023-02-15T11:29:59;4.50;;;2.25;;
65187;SDS011;51775;51.148;6.950;2023-02-15T11:35:50;4.40;;;2.45;;
65187;SDS011;51775;51.148;6.950;2023-02-15T11:38:01;3.28;;;2.25;;
65187;SDS011;51775;51.148;6.950;2023-02-15T11:40:32;4.60;;;2.50;;
65187;SDS011;51775;51.148;6.950;2023-02-15T11:43:11;3.35;;;2.33;;
65187;SDS011;51775;51.148;6.950;2023-02-15T11:45:42;4.57;;;2.30;;
65187;SDS011;51775;51.148;6.950;2023-02-15T11:48:10;3.47;;;2.30;;
65187;SDS011;51775;51.148;6.950;2023-02-15T11:50:38;2.88;;;2.13;;
65187;SDS011;51775;51.148;6.950;2023-02-15T11:53:09;3.50;;;2.50;;
65187;SDS011;51775;51.148;6.950;2023-02-15T11:55:47;3.85;;;2.30;;
65187;SDS011;51775;51.148;6.950;2023-02-15T11:58:25;5.78;;;2.90;;
65187;SDS011;51775;51.148;6.950;2023-02-15T12:01:02;5.20;;;2.72;;
65187;SDS011;51775;51.148;6.950;2023-02-15T12:03:45;4.32;;;2.70;;
65187;SDS011;51775;51.148;6.950;2023-02-15T12:09:05;4.70;;;2.40;;
65187;SDS011;51775;51.148;6.950;2023-02-15T12:11:38;5.45;;;3.17;;
65187;SDS011;51775;51.148;6.950;2023-02-15T12:14:06;4.60;;;2.03;;
65187;SDS011;51775;51.148;6.950;2023-02-15T12:16:39;5.10;;;3.10;;
65187;SDS011;51775;51.148;6.950;2023-02-15T12:19:09;3.55;;;2.10;;
65187;SDS011;51775;51.148;6.950;2023-02-15T12:21:49;4.03;;;2.63;;
65187;SDS011;51775;51.148;6.950;2023-02-15T12:24:32;4.82;;;2.92;;
65187;SDS011;51775;51.148;6.950;2023-02-15T12:27:02;5.40;;;3.25;;
65187;SDS011;51775;51.148;6.950;2023-02-15T12:29:40;3.53;;;1.95;;
65187;SDS011;51775;51.148;6.950;2023-02-15T12:32:10;4.72;;;3.13;;
65187;SDS011;51775;51.148;6.950;2023-02-15T12:35:01;5.00;;;2.03;;
65187;SDS011;51775;51.148;6.950;2023-02-15T12:37:34;4.43;;;2.88;;
65187;SDS011;51775;51.148;6.950;2023-02-15T12:40:01;5.55;;;3.10;;
65187;SDS011;51775;51.148;6.950;2023-02-15T12:42:46;3.75;;;2.03;;
65187;SDS011;51775;51.148;6.950;2023-02-15T12:45:26;4.43;;;3.00;;
65187;SDS011;51775;51.148;6.950;2023-02-15T12:50:46;4.28;;;2.15;;
65187;SDS011;51775;51.148;6.950;2023-02-15T12:58:23;5.25;;;3.22;;
65187;SDS011;51775;51.148;6.950;2023-02-15T13:03:33;4.80;;;3.00;;
65187;SDS011;51775;51.148;6.950;2023-02-15T13:06:00;6.63;;;3.10;;
65187;SDS011;51775;51.148;6.950;2023-02-15T13:08:28;3.83;;;2.00;;
65187;SDS011;51775;51.148;6.950;2023-02-15T13:13:35;5.30;;;2.97;;
65187;SDS011;51775;51.148;6.950;2023-02-15T13:16:17;5.40;;;3.08;;
65187;SDS011;51775;51.148;6.950;2023-02-15T13:18:49;4.30;;;2.40;;
65187;SDS011;51775;51.148;6.950;2023-02-15T13:21:20;5.45;;;3.05;;
65187;SDS011;51775;51.148;6.950;2023-02-15T13:24:06;4.18;;;2.13;;
65187;SDS011;51775;51.148;6.950;2023-02-15T13:26:40;4.93;;;2.90;;
65187;SDS011;51775;51.148;6.950;2023-02-15T13:29:10;5.60;;;3.00;;
65187;SDS011;51775;51.148;6.950;2023-02-15T13:31:42;6.00;;;3.05;;
65187;SDS011;51775;51.148;6.950;2023-02-15T13:34:10;3.97;;;2.30;;
65187;SDS011;51775;51.148;6.950;2023-02-15T13:36:49;4.22;;;2.83;;
65187;SDS011;51775;51.148;6.950;2023-02-15T13:39:21;4.78;;;2.97;;
65187;SDS011;51775;51.148;6.950;2023-02-15T13:44:25;3.15;;;1.92;;
65187;SDS011;51775;51.148;6.950;2023-02-15T13:47:17;4.47;;;2.88;;
65187;SDS011;51775;51.148;6.950;2023-02-15T13:50:01;5.03;;;2.90;;
65187;SDS011;51775;51.148;6.950;2023-02-15T13:52:40;5.30;;;3.10;;
65187;SDS011;51775;51.148;6.950;2023-02-15T13:55:27;3.72;;;2.30;;
65187;SDS011;51775;51.148;6.950;2023-02-15T14:00:47;4.45;;;2.25;;
65187;SDS011;51775;51.148;6.950;2023-02-15T14:17:03;6.05;;;3.00;;
65187;SDS011;51775;51.148;6.950;2023-02-15T14:19:59;4.72;;;3.03;;
65187;SDS011;51775;51.148;6.950;2023-02-15T14:22:41;3.70;;;2.25;;
65187;SDS011;51775;51.148;6.950;2023-02-15T14:25:28;4.95;;;3.20;;
65187;SDS011;51775;51.148;6.950;2023-02-15T14:30:41;4.78;;;3.10;;
65187;SDS011;51775;51.148;6.950;2023-02-15T14:35:53;4.38;;;2.83;;
65187;SDS011;51775;51.148;6.950;2023-02-15T14:49:14;4.38;;;2.20;;
65187;SDS011;51775;51.148;6.950;2023-02-15T14:54:08;3.03;;;1.90;;
65187;SDS011;51775;51.148;6.950;2023-02-15T14:56:34;5.65;;;3.22;;
65187;SDS011;51775;51.148;6.950;2023-02-15T15:02:07;5.10;;;3.60;;
65187;SDS011;51775;51.148;6.950;2023-02-15T15:04:56;3.97;;;2.30;;
65187;SDS011;51775;51.148;6.950;2023-02-15T15:07:26;4.55;;;2.80;;
65187;SDS011;51775;51.148;6.950;2023-02-15T15:10:23;5.45;;;3.15;;
65187;SDS011;51775;51.148;6.950;2023-02-15T15:12:54;4.03;;;1.83;;
65187;SDS011;51775;51.148;6.950;2023-02-15T15:31:16;4.40;;;3.00;;
65187;SDS011;51775;51.148;6.950;2023-02-15T15:41:53;6.60;;;3.28;;
65187;SDS011;51775;51.148;6.950;2023-02-15T15:50:32;4.15;;;2.35;;
65187;SDS011;51775;51.148;6.950;2023-02-15T15:52:58;4.70;;;3.03;;
65187;SDS011;51775;51.148;6.950;2023-02-15T15:55:27;4.20;;;2.00;;
65187;SDS011;51775;51.148;6.950;2023-02-15T15:57:56;4.80;;;2.90;;
65187;SDS011;51775;51.148;6.950;2023-02-15T16:00:31;5.20;;;2.80;;
65187;SDS011;51775;51.148;6.950;2023-02-15T16:03:24;5.03;;;3.03;;
65187;SDS011;51775;51.148;6.950;2023-02-15T16:05:52;4.47;;;2.17;;
65187;SDS011;51775;51.148;6.950;2023-02-15T16:08:28;4.50;;;2.90;;
65187;SDS011;51775;51.148;6.950;2023-02-15T16:11:17;4.55;;;3.05;;
65187;SDS011;51775;51.148;6.950;2023-02-15T16:13:48;2.90;;;1.83;;
65187;SDS011;51775;51.148;6.950;2023-02-15T16:16:19;6.05;;;3.10;;
65187;SDS011;51775;51.148;6.950;2023-02-15T16:18:50;4.88;;;2.22;;
65187;SDS011;51775;51.148;6.950;2023-02-15T16:21:20;4.63;;;3.10;;
65187;SDS011;51775;51.148;6.950;2023-02-15T16:26:40;5.07;;;3.40;;
65187;SDS011;51775;51.148;6.950;2023-02-15T16:29:17;3.72;;;2.25;;
65187;SDS011;51775;51.148;6.950;2023-02-15T16:35:01;4.15;;;1.77;;
65187;SDS011;51775;51.148;6.950;2023-02-15T16:37:30;4.90;;;3.35;;
65187;SDS011;51775;51.148;6.950;2023-02-15T16:39:57;3.13;;;1.90;;
65187;SDS011;51775;51.148;6.950;2023-02-15T16:42:22;5.45;;;3.30;;
65187;SDS011;51775;51.148;6.950;2023-02-15T16:44:50;3.97;;;2.25;;
65187;SDS011;51775;51.148;6.950;2023-02-15T16:47:21;5.07;;;3.20;;
65187;SDS011;51775;51.148;6.950;2023-02-15T16:49:53;3.10;;;1.92;;
65187;SDS011;51775;51.148;6.950;2023-02-15T16:52:23;5.55;;;3.50;;
65187;SDS011;51775;51.148;6.950;2023-02-15T16:54:57;3.33;;;2.08;;
65187;SDS011;51775;51.148;6.950;2023-02-15T16:57:33;5.25;;;3.17;;
65187;SDS011;51775;51.148;6.950;2023-02-15T17:00:06;2.85;;;1.60;;
65187;SDS011;51775;51.148;6.950;2023-02-15T17:02:42;5.72;;;3.25;;
65187;SDS011;51775;51.148;6.950;2023-02-15T17:05:56;3.67;;;2.08;;
65187;SDS011;51775;51.148;6.950;2023-02-15T17:13:24;5.35;;;3.10;;
65187;SDS011;51775;51.148;6.950;2023-02-15T17:18:26;4.75;;;3.15;;
65187;SDS011;51775;51.148;6.950;2023-02-15T17:20:53;4.22;;;2.30;;
65187;SDS011;51775;51.148;6.950;2023-02-15T17:23:32;5.22;;;3.28;;
65187;SDS011;51775;51.148;6.950;2023-02-15T17:25:58;4.25;;;1.92;;
65187;SDS011;51775;51.148;6.950;2023-02-15T17:28:29;5.20;;;3.38;;
65187;SDS011;51775;51.148;6.950;2023-02-15T17:30:56;3.13;;;2.05;;
65187;SDS011;51775;51.148;6.950;2023-02-15T17:36:04;3.47;;;2.33;;
65187;SDS011;51775;51.148;6.950;2023-02-15T17:38:32;6.35;;;3.70;;
65187;SDS011;51775;51.148;6.950;2023-02-15T17:40:57;4.63;;;2.40;;
65187;SDS011;51775;51.148;6.950;2023-02-15T17:43:24;4.85;;;3.38;;
65187;SDS011;51775;51.148;6.950;2023-02-15T17:45:50;3.30;;;2.00;;
65187;SDS011;51775;51.148;6.950;2023-02-15T17:48:23;6.28;;;3.53;;
65187;SDS011;51775;51.148;6.950;2023-02-15T17:50:57;3.95;;;1.95;;
65187;SDS011;51775;51.148;6.950;2023-02-15T17:53:23;5.03;;;3.30;;
65187;SDS011;51775;51.148;6.950;2023-02-15T17:55:49;3.78;;;2.13;;
65187;SDS011;51775;51.148;6.950;2023-02-15T17:58:15;4.88;;;3.20;;
65187;SDS011;51775;51.148;6.950;2023-02-15T18:00:43;3.83;;;2.35;;